This is the latest recevied weather packets stored in our database for station/object EA4IAJ-12. If no packets are shown the sender has not sent any weather packets the latest 10 day(s).
| Time | Temp. | Humidity | Pressure | Rain* | Wind** | Luminosity | Snow |
|---|---|---|---|---|---|---|---|
| 1778095836 | 13.89° C | 30% | 1000.7 hPa | - | - | - | - |
| 1778094935 | 15.56° C | 30% | 1007 hPa | - | - | - | - |
| 1778094035 | 18.33° C | 30% | 1015.8 hPa | - | - | - | - |
| 1778093134 | 22.22° C | 31% | 1029.6 hPa | - | - | - | - |
| 1778092234 | 25° C | 32% | 1040.3 hPa | - | - | - | - |
| 1778091333 | 25.56° C | 32% | 1042.7 hPa | - | - | - | - |
| 1778090433 | 26.11° C | 33% | 1044.6 hPa | - | - | - | - |
| 1778089532 | 25.56° C | 33% | 1043.6 hPa | - | - | - | - |
| 1778088632 | 20.56° C | 32% | 1025.1 hPa | - | - | - | - |
| 1778087731 | 21.67° C | 32% | 1029 hPa | - | - | - | - |
| 1778086831 | 24.44° C | 33% | 1040.4 hPa | - | - | - | - |
| 1778085930 | 23.89° C | 33% | 1036.9 hPa | - | - | - | - |
| 1778085029 | 26.11° C | 35% | 1045.8 hPa | - | - | - | - |
| 1778084129 | 28.33° C | 36% | 1054.4 hPa | - | - | - | - |
| 1778083229 | 28.89° C | 37% | 1058.1 hPa | - | - | - | - |
| 1778082341 | 27.78° C | 38% | 1055.1 hPa | - | - | - | - |
| 1778081440 | 31.11° C | 40% | 1068.8 hPa | - | - | - | - |
| 1778080540 | 30° C | 42% | 1064.7 hPa | - | - | - | - |
| 1778079639 | 30° C | 43% | 1064 hPa | - | - | - | - |
| 1778078738 | 31.11° C | 46% | 1069.8 hPa | - | - | - | - |
| 1778077838 | 26.11° C | 45% | 1051.1 hPa | - | - | - | - |
| 1778076937 | 27.78° C | 47% | 1057.1 hPa | - | - | - | - |
| 1778076037 | 27.22° C | 50% | 1056.7 hPa | - | - | - | - |
| 1778075136 | 25° C | 50% | 1047 hPa | - | - | - | - |
| 1778074235 | 31.67° C | 59% | 1074.1 hPa | - | - | - | - |
* Rain since midnight (hover to see other rain measurements)
** Current wind speed in m/s (hover to see current wind gust speed)